<?xml version="1.0" encoding="UTF-8" standalone="no" ?>
<gpx xmlns="http://www.topografix.com/GPX/1/1" xmlns:xsi="http://www.w3.org/2001/XMLSchema-instance" xsi:schemaLocation="http://www.topografix.com/GPX/1/1 http://www.topografix.com/GPX/1/1/gpx.xsd" version="1.1" creator="VisuGPX - https://www.visugpx.com">
  <metadata>
    <name>3 écluses de Trèbes Circuit</name>
  </metadata>
  <trk>
    <name><![CDATA[GPX Download: 3 écluses de Trèbes Circuit à partir de Capendu]]></name>
    <trkseg>
      <trkpt lat="43.18779" lon="2.55799">
        <ele>73.930495</ele>
        <time>2022-07-17T10:00:49.384Z</time>
      </trkpt>
      <trkpt lat="43.18779" lon="2.55718">
        <ele>73.930495</ele>
        <time>2022-07-17T10:01:00.995Z</time>
      </trkpt>
      <trkpt lat="43.18841" lon="2.55749">
        <ele>73.252613</ele>
        <time>2022-07-17T10:01:13.667Z</time>
      </trkpt>
      <trkpt lat="43.18853" lon="2.5575">
        <ele>73.022981</ele>
        <time>2022-07-17T10:01:15.868Z</time>
      </trkpt>
      <trkpt lat="43.18889" lon="2.55728">
        <ele>72.26687</ele>
        <time>2022-07-17T10:01:23.144Z</time>
      </trkpt>
      <trkpt lat="43.18951" lon="2.55691">
        <ele>70.957016</ele>
        <time>2022-07-17T10:01:35.356Z</time>
      </trkpt>
      <trkpt lat="43.19009" lon="2.55658">
        <ele>69.838435</ele>
        <time>2022-07-17T10:01:46.704Z</time>
      </trkpt>
      <trkpt lat="43.19082" lon="2.55576">
        <ele>68.263153</ele>
        <time>2022-07-17T10:02:04.496Z</time>
      </trkpt>
      <trkpt lat="43.19104" lon="2.55541">
        <ele>67.701146</ele>
        <time>2022-07-17T10:02:11.219Z</time>
      </trkpt>
      <trkpt lat="43.19139" lon="2.55457">
        <ele>67.006836</ele>
        <time>2022-07-17T10:02:25.395Z</time>
      </trkpt>
      <trkpt lat="43.19238" lon="2.55408">
        <ele>66.169106</ele>
        <time>2022-07-17T10:02:47.374Z</time>
      </trkpt>
      <trkpt lat="43.19278" lon="2.5538">
        <ele>65.949571</ele>
        <time>2022-07-17T10:02:57.015Z</time>
      </trkpt>
      <trkpt lat="43.19287" lon="2.55367">
        <ele>65.915631</ele>
        <time>2022-07-17T10:02:59.871Z</time>
      </trkpt>
      <trkpt lat="43.19308" lon="2.5531">
        <ele>65.795189</ele>
        <time>2022-07-17T10:03:10.027Z</time>
      </trkpt>
      <trkpt lat="43.19326" lon="2.55284">
        <ele>65.726153</ele>
        <time>2022-07-17T10:03:15.940Z</time>
      </trkpt>
      <trkpt lat="43.19333" lon="2.55262">
        <ele>65.680628</ele>
        <time>2022-07-17T10:03:19.835Z</time>
      </trkpt>
      <trkpt lat="43.19339" lon="2.55183">
        <ele>65.555997</ele>
        <time>2022-07-17T10:03:33.054Z</time>
      </trkpt>
      <trkpt lat="43.19356" lon="2.5484">
        <ele>66.053199</ele>
        <time>2022-07-17T10:04:32.894Z</time>
      </trkpt>
      <trkpt lat="43.1936" lon="2.54405">
        <ele>67.251461</ele>
        <time>2022-07-17T10:05:52.790Z</time>
      </trkpt>
      <trkpt lat="43.19524" lon="2.54407">
        <ele>67.135516</ele>
        <time>2022-07-17T10:06:27.830Z</time>
      </trkpt>
      <trkpt lat="43.1955" lon="2.54398">
        <ele>67.048784</ele>
        <time>2022-07-17T10:06:33.441Z</time>
      </trkpt>
      <trkpt lat="43.19575" lon="2.54373">
        <ele>66.949241</ele>
        <time>2022-07-17T10:06:39.888Z</time>
      </trkpt>
      <trkpt lat="43.19595" lon="2.54332">
        <ele>66.834037</ele>
        <time>2022-07-17T10:06:47.381Z</time>
      </trkpt>
      <trkpt lat="43.1967" lon="2.54043">
        <ele>66.432339</ele>
        <time>2022-07-17T10:07:35.055Z</time>
      </trkpt>
      <trkpt lat="43.19686" lon="2.54013">
        <ele>66.422274</ele>
        <time>2022-07-17T10:07:41.340Z</time>
      </trkpt>
      <trkpt lat="43.19704" lon="2.54004">
        <ele>66.526708</ele>
        <time>2022-07-17T10:07:46.169Z</time>
      </trkpt>
      <trkpt lat="43.19922" lon="2.53998">
        <ele>67.991373</ele>
        <time>2022-07-17T10:08:39.907Z</time>
      </trkpt>
      <trkpt lat="43.20024" lon="2.53996">
        <ele>69.070072</ele>
        <time>2022-07-17T10:09:05.988Z</time>
      </trkpt>
      <trkpt lat="43.20062" lon="2.53995">
        <ele>69.972299</ele>
        <time>2022-07-17T10:09:16.888Z</time>
      </trkpt>
      <trkpt lat="43.20193" lon="2.53994">
        <ele>74.352305</ele>
        <time>2022-07-17T10:10:05.441Z</time>
      </trkpt>
      <trkpt lat="43.20227" lon="2.53993">
        <ele>75.502868</ele>
        <time>2022-07-17T10:10:19.427Z</time>
      </trkpt>
      <trkpt lat="43.20266" lon="2.53992">
        <ele>76.713569</ele>
        <time>2022-07-17T10:10:34.351Z</time>
      </trkpt>
      <trkpt lat="43.20326" lon="2.53993">
        <ele>78.576207</ele>
        <time>2022-07-17T10:10:56.311Z</time>
      </trkpt>
      <trkpt lat="43.20346" lon="2.53908">
        <ele>80.582671</ele>
        <time>2022-07-17T10:11:17.565Z</time>
      </trkpt>
      <trkpt lat="43.20348" lon="2.53902">
        <ele>80.735765</ele>
        <time>2022-07-17T10:11:19.161Z</time>
      </trkpt>
      <trkpt lat="43.20354" lon="2.53874">
        <ele>81.022277</ele>
        <time>2022-07-17T10:11:25.120Z</time>
      </trkpt>
      <trkpt lat="43.20356" lon="2.53868">
        <ele>81.061352</ele>
        <time>2022-07-17T10:11:26.280Z</time>
      </trkpt>
      <trkpt lat="43.20356" lon="2.53866">
        <ele>81.077054</ele>
        <time>2022-07-17T10:11:26.764Z</time>
      </trkpt>
      <trkpt lat="43.20361" lon="2.53846">
        <ele>81.213235</ele>
        <time>2022-07-17T10:11:30.766Z</time>
      </trkpt>
      <trkpt lat="43.20393" lon="2.53827">
        <ele>81.524767</ele>
        <time>2022-07-17T10:11:39.018Z</time>
      </trkpt>
      <trkpt lat="43.20408" lon="2.5382">
        <ele>81.667095</ele>
        <time>2022-07-17T10:11:42.448Z</time>
      </trkpt>
      <trkpt lat="43.20422" lon="2.53667">
        <ele>82.561116</ele>
        <time>2022-07-17T10:12:10.860Z</time>
      </trkpt>
      <trkpt lat="43.2043" lon="2.53639">
        <ele>82.643475</ele>
        <time>2022-07-17T10:12:16.328Z</time>
      </trkpt>
      <trkpt lat="43.20459" lon="2.53596">
        <ele>82.798254</ele>
        <time>2022-07-17T10:12:26.578Z</time>
      </trkpt>
      <trkpt lat="43.20502" lon="2.53528">
        <ele>83.040472</ele>
        <time>2022-07-17T10:12:41.938Z</time>
      </trkpt>
      <trkpt lat="43.20524" lon="2.53494">
        <ele>83.15825</ele>
        <time>2022-07-17T10:12:49.616Z</time>
      </trkpt>
      <trkpt lat="43.20575" lon="2.53415">
        <ele>83.405378</ele>
        <time>2022-07-17T10:13:06.762Z</time>
      </trkpt>
      <trkpt lat="43.20611" lon="2.53342">
        <ele>83.610121</ele>
        <time>2022-07-17T10:13:21.085Z</time>
      </trkpt>
      <trkpt lat="43.20669" lon="2.53216">
        <ele>84.889702</ele>
        <time>2022-07-17T10:13:49.962Z</time>
      </trkpt>
      <trkpt lat="43.20844" lon="2.52984">
        <ele>89.244402</ele>
        <time>2022-07-17T10:15:03.415Z</time>
      </trkpt>
      <trkpt lat="43.20893" lon="2.52926">
        <ele>90.535958</ele>
        <time>2022-07-17T10:15:22.666Z</time>
      </trkpt>
      <trkpt lat="43.20957" lon="2.52832">
        <ele>92.434647</ele>
        <time>2022-07-17T10:15:50.714Z</time>
      </trkpt>
      <trkpt lat="43.21002" lon="2.52751">
        <ele>94.00595</ele>
        <time>2022-07-17T10:16:13.276Z</time>
      </trkpt>
      <trkpt lat="43.21135" lon="2.52481">
        <ele>100.017672</ele>
        <time>2022-07-17T10:17:32.454Z</time>
      </trkpt>
      <trkpt lat="43.21166" lon="2.52441">
        <ele>100.964689</ele>
        <time>2022-07-17T10:17:46.256Z</time>
      </trkpt>
      <trkpt lat="43.21192" lon="2.5242">
        <ele>101.655547</ele>
        <time>2022-07-17T10:17:55.661Z</time>
      </trkpt>
      <trkpt lat="43.21253" lon="2.52397">
        <ele>102.416716</ele>
        <time>2022-07-17T10:18:13.064Z</time>
      </trkpt>
      <trkpt lat="43.2128" lon="2.5238">
        <ele>102.339542</ele>
        <time>2022-07-17T10:18:20.617Z</time>
      </trkpt>
      <trkpt lat="43.21297" lon="2.52357">
        <ele>102.278997</ele>
        <time>2022-07-17T10:18:26.070Z</time>
      </trkpt>
      <trkpt lat="43.21369" lon="2.52233">
        <ele>101.729137</ele>
        <time>2022-07-17T10:18:48.103Z</time>
      </trkpt>
      <trkpt lat="43.21442" lon="2.52053">
        <ele>98.763631</ele>
        <time>2022-07-17T10:19:14.476Z</time>
      </trkpt>
      <trkpt lat="43.21502" lon="2.51927">
        <ele>95.855684</ele>
        <time>2022-07-17T10:19:33.081Z</time>
      </trkpt>
      <trkpt lat="43.21522" lon="2.51865">
        <ele>94.484183</ele>
        <time>2022-07-17T10:19:41.324Z</time>
      </trkpt>
      <trkpt lat="43.21552" lon="2.51734">
        <ele>91.423589</ele>
        <time>2022-07-17T10:19:57.504Z</time>
      </trkpt>
      <trkpt lat="43.21706" lon="2.51384">
        <ele>82.28891</ele>
        <time>2022-07-17T10:20:46.082Z</time>
      </trkpt>
      <trkpt lat="43.21779" lon="2.51242">
        <ele>80.734456</ele>
        <time>2022-07-17T10:21:09.822Z</time>
      </trkpt>
      <trkpt lat="43.21801" lon="2.51203">
        <ele>80.284588</ele>
        <time>2022-07-17T10:21:17.208Z</time>
      </trkpt>
      <trkpt lat="43.21853" lon="2.51113">
        <ele>80.040601</ele>
        <time>2022-07-17T10:21:35.001Z</time>
      </trkpt>
      <trkpt lat="43.21874" lon="2.51091">
        <ele>80.013873</ele>
        <time>2022-07-17T10:21:40.624Z</time>
      </trkpt>
      <trkpt lat="43.21881" lon="2.51084">
        <ele>80.00489</ele>
        <time>2022-07-17T10:21:42.562Z</time>
      </trkpt>
      <trkpt lat="43.21889" lon="2.51076">
        <ele>79.994723</ele>
        <time>2022-07-17T10:21:44.719Z</time>
      </trkpt>
      <trkpt lat="43.21914" lon="2.51059">
        <ele>79.965965</ele>
        <time>2022-07-17T10:21:50.913Z</time>
      </trkpt>
      <trkpt lat="43.21899" lon="2.51011">
        <ele>79.933255</ele>
        <time>2022-07-17T10:21:59.568Z</time>
      </trkpt>
      <trkpt lat="43.21855" lon="2.50857">
        <ele>80.727863</ele>
        <time>2022-07-17T10:22:29.097Z</time>
      </trkpt>
      <trkpt lat="43.2186" lon="2.50814">
        <ele>80.934417</ele>
        <time>2022-07-17T10:22:37.360Z</time>
      </trkpt>
      <trkpt lat="43.21884" lon="2.50727">
        <ele>81.703123</ele>
        <time>2022-07-17T10:22:55.334Z</time>
      </trkpt>
      <trkpt lat="43.21872" lon="2.50702">
        <ele>82.015344</ele>
        <time>2022-07-17T10:23:01.147Z</time>
      </trkpt>
      <trkpt lat="43.21866" lon="2.50692">
        <ele>82.151215</ele>
        <time>2022-07-17T10:23:03.701Z</time>
      </trkpt>
      <trkpt lat="43.21862" lon="2.50687">
        <ele>82.233959</ele>
        <time>2022-07-17T10:23:05.220Z</time>
      </trkpt>
      <trkpt lat="43.21853" lon="2.50665">
        <ele>82.501247</ele>
        <time>2022-07-17T10:23:10.288Z</time>
      </trkpt>
      <trkpt lat="43.21833" lon="2.50461">
        <ele>85.053358</ele>
        <time>2022-07-17T10:23:54.360Z</time>
      </trkpt>
      <trkpt lat="43.21822" lon="2.50353">
        <ele>86.653701</ele>
        <time>2022-07-17T10:24:18.688Z</time>
      </trkpt>
      <trkpt lat="43.21805" lon="2.50276">
        <ele>87.874095</ele>
        <time>2022-07-17T10:24:37.107Z</time>
      </trkpt>
      <trkpt lat="43.21741" lon="2.50094">
        <ele>90.995043</ele>
        <time>2022-07-17T10:25:22.179Z</time>
      </trkpt>
      <trkpt lat="43.21679" lon="2.49954">
        <ele>93.756377</ele>
        <time>2022-07-17T10:25:58.755Z</time>
      </trkpt>
      <trkpt lat="43.21642" lon="2.49829">
        <ele>96.336922</ele>
        <time>2022-07-17T10:26:30.673Z</time>
      </trkpt>
      <trkpt lat="43.21599" lon="2.49665">
        <ele>100.537855</ele>
        <time>2022-07-17T10:27:16.940Z</time>
      </trkpt>
      <trkpt lat="43.21577" lon="2.49614">
        <ele>101.66075</ele>
        <time>2022-07-17T10:27:33.774Z</time>
      </trkpt>
      <trkpt lat="43.21523" lon="2.4951">
        <ele>103.276184</ele>
        <time>2022-07-17T10:28:03.750Z</time>
      </trkpt>
      <trkpt lat="43.21508" lon="2.49476">
        <ele>103.771645</ele>
        <time>2022-07-17T10:28:11.469Z</time>
      </trkpt>
      <trkpt lat="43.21498" lon="2.49451">
        <ele>104.126755</ele>
        <time>2022-07-17T10:28:16.333Z</time>
      </trkpt>
      <trkpt lat="43.21474" lon="2.49378">
        <ele>103.545161</ele>
        <time>2022-07-17T10:28:27.372Z</time>
      </trkpt>
      <trkpt lat="43.21469" lon="2.49342">
        <ele>102.976531</ele>
        <time>2022-07-17T10:28:32.195Z</time>
      </trkpt>
      <trkpt lat="43.21471" lon="2.49227">
        <ele>101.183006</ele>
        <time>2022-07-17T10:28:46.081Z</time>
      </trkpt>
      <trkpt lat="43.21471" lon="2.49214">
        <ele>100.991764</ele>
        <time>2022-07-17T10:28:47.575Z</time>
      </trkpt>
      <trkpt lat="43.21472" lon="2.49162">
        <ele>100.245218</ele>
        <time>2022-07-17T10:28:53.947Z</time>
      </trkpt>
      <trkpt lat="43.21465" lon="2.49078">
        <ele>99.16978</ele>
        <time>2022-07-17T10:29:04.375Z</time>
      </trkpt>
      <trkpt lat="43.21459" lon="2.4903">
        <ele>98.545953</ele>
        <time>2022-07-17T10:29:10.804Z</time>
      </trkpt>
      <trkpt lat="43.21458" lon="2.48968">
        <ele>97.758732</ele>
        <time>2022-07-17T10:29:19.487Z</time>
      </trkpt>
      <trkpt lat="43.21467" lon="2.48903">
        <ele>97.482418</ele>
        <time>2022-07-17T10:29:29.297Z</time>
      </trkpt>
      <trkpt lat="43.21536" lon="2.48563">
        <ele>98.82796</ele>
        <time>2022-07-17T10:30:30.376Z</time>
      </trkpt>
      <trkpt lat="43.21547" lon="2.48474">
        <ele>99.522513</ele>
        <time>2022-07-17T10:30:48.811Z</time>
      </trkpt>
      <trkpt lat="43.2161" lon="2.48132">
        <ele>108.334479</ele>
        <time>2022-07-17T10:32:19.614Z</time>
      </trkpt>
      <trkpt lat="43.21652" lon="2.48006">
        <ele>112.95981</ele>
        <time>2022-07-17T10:33:04.193Z</time>
      </trkpt>
      <trkpt lat="43.21687" lon="2.47896">
        <ele>116.626858</ele>
        <time>2022-07-17T10:33:42.412Z</time>
      </trkpt>
      <trkpt lat="43.21697" lon="2.47844">
        <ele>118.279915</ele>
        <time>2022-07-17T10:33:57.837Z</time>
      </trkpt>
      <trkpt lat="43.21708" lon="2.47719">
        <ele>121.139854</ele>
        <time>2022-07-17T10:34:28.200Z</time>
      </trkpt>
      <trkpt lat="43.21703" lon="2.4765">
        <ele>121.635488</ele>
        <time>2022-07-17T10:34:43.177Z</time>
      </trkpt>
      <trkpt lat="43.21691" lon="2.47601">
        <ele>122.010445</ele>
        <time>2022-07-17T10:34:52.619Z</time>
      </trkpt>
      <trkpt lat="43.21676" lon="2.47525">
        <ele>122.579326</ele>
        <time>2022-07-17T10:35:05.217Z</time>
      </trkpt>
      <trkpt lat="43.21678" lon="2.47436">
        <ele>121.972768</ele>
        <time>2022-07-17T10:35:17.313Z</time>
      </trkpt>
      <trkpt lat="43.21676" lon="2.47361">
        <ele>121.401463</ele>
        <time>2022-07-17T10:35:27.753Z</time>
      </trkpt>
      <trkpt lat="43.21654" lon="2.4735">
        <ele>121.145885</ele>
        <time>2022-07-17T10:35:32.353Z</time>
      </trkpt>
      <trkpt lat="43.21637" lon="2.47339">
        <ele>120.951733</ele>
        <time>2022-07-17T10:35:35.860Z</time>
      </trkpt>
      <trkpt lat="43.21623" lon="2.47318">
        <ele>120.737372</ele>
        <time>2022-07-17T10:35:39.679Z</time>
      </trkpt>
      <trkpt lat="43.21622" lon="2.47314">
        <ele>120.706514</ele>
        <time>2022-07-17T10:35:40.309Z</time>
      </trkpt>
      <trkpt lat="43.21621" lon="2.47307">
        <ele>120.667674</ele>
        <time>2022-07-17T10:35:41.264Z</time>
      </trkpt>
      <trkpt lat="43.21617" lon="2.47289">
        <ele>120.558136</ele>
        <time>2022-07-17T10:35:43.848Z</time>
      </trkpt>
      <trkpt lat="43.2161" lon="2.47268">
        <ele>120.427997</ele>
        <time>2022-07-17T10:35:46.951Z</time>
      </trkpt>
      <trkpt lat="43.21604" lon="2.47261">
        <ele>120.365245</ele>
        <time>2022-07-17T10:35:48.451Z</time>
      </trkpt>
      <trkpt lat="43.21546" lon="2.47238">
        <ele>119.892802</ele>
        <time>2022-07-17T10:35:59.792Z</time>
      </trkpt>
      <trkpt lat="43.21506" lon="2.47227">
        <ele>119.577306</ele>
        <time>2022-07-17T10:36:08.013Z</time>
      </trkpt>
      <trkpt lat="43.21486" lon="2.47227">
        <ele>119.419804</ele>
        <time>2022-07-17T10:36:12.539Z</time>
      </trkpt>
      <trkpt lat="43.21388" lon="2.4723">
        <ele>119.640531</ele>
        <time>2022-07-17T10:36:36.268Z</time>
      </trkpt>
      <trkpt lat="43.21345" lon="2.47219">
        <ele>119.805388</ele>
        <time>2022-07-17T10:36:46.683Z</time>
      </trkpt>
      <trkpt lat="43.2132" lon="2.47197">
        <ele>119.915429</ele>
        <time>2022-07-17T10:36:53.604Z</time>
      </trkpt>
      <trkpt lat="43.2132" lon="2.47196">
        <ele>119.91965</ele>
        <time>2022-07-17T10:36:53.885Z</time>
      </trkpt>
      <trkpt lat="43.21301" lon="2.47147">
        <ele>120.015874</ele>
        <time>2022-07-17T10:37:03.579Z</time>
      </trkpt>
      <trkpt lat="43.213" lon="2.47111">
        <ele>120.040865</ele>
        <time>2022-07-17T10:37:09.920Z</time>
      </trkpt>
      <trkpt lat="43.21339" lon="2.46967">
        <ele>120.146449</ele>
        <time>2022-07-17T10:37:36.155Z</time>
      </trkpt>
      <trkpt lat="43.21369" lon="2.46855">
        <ele>118.829171</ele>
        <time>2022-07-17T10:37:53.255Z</time>
      </trkpt>
      <trkpt lat="43.2137" lon="2.46798">
        <ele>117.975219</ele>
        <time>2022-07-17T10:38:00.646Z</time>
      </trkpt>
      <trkpt lat="43.21293" lon="2.46438">
        <ele>110.10231</ele>
        <time>2022-07-17T10:38:44.664Z</time>
      </trkpt>
      <trkpt lat="43.21275" lon="2.46268">
        <ele>107.61911</ele>
        <time>2022-07-17T10:39:06.776Z</time>
      </trkpt>
      <trkpt lat="43.21263" lon="2.46209">
        <ele>106.835102</ele>
        <time>2022-07-17T10:39:15.391Z</time>
      </trkpt>
      <trkpt lat="43.21228" lon="2.46102">
        <ele>105.967879</ele>
        <time>2022-07-17T10:39:32.120Z</time>
      </trkpt>
      <trkpt lat="43.21215" lon="2.4603">
        <ele>105.423937</ele>
        <time>2022-07-17T10:39:42.476Z</time>
      </trkpt>
      <trkpt lat="43.21201" lon="2.45877">
        <ele>104.686364</ele>
        <time>2022-07-17T10:40:04.319Z</time>
      </trkpt>
      <trkpt lat="43.21181" lon="2.45749">
        <ele>104.183075</ele>
        <time>2022-07-17T10:40:24.300Z</time>
      </trkpt>
      <trkpt lat="43.21166" lon="2.45537">
        <ele>104.431303</ele>
        <time>2022-07-17T10:41:01.761Z</time>
      </trkpt>
      <trkpt lat="43.21156" lon="2.45461">
        <ele>104.114246</ele>
        <time>2022-07-17T10:41:13.678Z</time>
      </trkpt>
      <trkpt lat="43.21143" lon="2.45421">
        <ele>103.723765</ele>
        <time>2022-07-17T10:41:19.825Z</time>
      </trkpt>
      <trkpt lat="43.21122" lon="2.45368">
        <ele>103.182922</ele>
        <time>2022-07-17T10:41:28.128Z</time>
      </trkpt>
      <trkpt lat="43.21122" lon="2.45354">
        <ele>103.061569</ele>
        <time>2022-07-17T10:41:29.918Z</time>
      </trkpt>
      <trkpt lat="43.21125" lon="2.45348">
        <ele>102.997124</ele>
        <time>2022-07-17T10:41:30.886Z</time>
      </trkpt>
      <trkpt lat="43.21126" lon="2.45335">
        <ele>102.881083</ele>
        <time>2022-07-17T10:41:32.605Z</time>
      </trkpt>
      <trkpt lat="43.21119" lon="2.45318">
        <ele>102.707323</ele>
        <time>2022-07-17T10:41:35.223Z</time>
      </trkpt>
      <trkpt lat="43.21114" lon="2.45315">
        <ele>102.638193</ele>
        <time>2022-07-17T10:41:36.233Z</time>
      </trkpt>
      <trkpt lat="43.2111" lon="2.45303">
        <ele>102.524492</ele>
        <time>2022-07-17T10:41:37.870Z</time>
      </trkpt>
      <trkpt lat="43.21099" lon="2.45233">
        <ele>101.759799</ele>
        <time>2022-07-17T10:41:46.936Z</time>
      </trkpt>
      <trkpt lat="43.21088" lon="2.45151">
        <ele>100.773438</ele>
        <time>2022-07-17T10:41:57.314Z</time>
      </trkpt>
      <trkpt lat="43.21084" lon="2.4512">
        <ele>100.398518</ele>
        <time>2022-07-17T10:42:01.462Z</time>
      </trkpt>
      <trkpt lat="43.21068" lon="2.45016">
        <ele>99.323416</ele>
        <time>2022-07-17T10:42:16.545Z</time>
      </trkpt>
      <trkpt lat="43.21071" lon="2.44954">
        <ele>99.225948</ele>
        <time>2022-07-17T10:42:26.336Z</time>
      </trkpt>
      <trkpt lat="43.21075" lon="2.44932">
        <ele>99.190862</ele>
        <time>2022-07-17T10:42:29.994Z</time>
      </trkpt>
      <trkpt lat="43.2108" lon="2.44902">
        <ele>99.142774</ele>
        <time>2022-07-17T10:42:34.915Z</time>
      </trkpt>
      <trkpt lat="43.21096" lon="2.44816">
        <ele>99.003503</ele>
        <time>2022-07-17T10:42:49.352Z</time>
      </trkpt>
      <trkpt lat="43.21105" lon="2.44763">
        <ele>98.771953</ele>
        <time>2022-07-17T10:42:58.231Z</time>
      </trkpt>
      <trkpt lat="43.21107" lon="2.44745">
        <ele>98.658075</ele>
        <time>2022-07-17T10:43:01.105Z</time>
      </trkpt>
      <trkpt lat="43.21106" lon="2.44733">
        <ele>98.579667</ele>
        <time>2022-07-17T10:43:03.033Z</time>
      </trkpt>
      <trkpt lat="43.2109" lon="2.44643">
        <ele>97.981198</ele>
        <time>2022-07-17T10:43:16.622Z</time>
      </trkpt>
      <trkpt lat="43.21086" lon="2.44597">
        <ele>97.683958</ele>
        <time>2022-07-17T10:43:22.928Z</time>
      </trkpt>
      <trkpt lat="43.21091" lon="2.44545">
        <ele>97.302412</ele>
        <time>2022-07-17T10:43:29.957Z</time>
      </trkpt>
      <trkpt lat="43.21106" lon="2.44426">
        <ele>95.205423</ele>
        <time>2022-07-17T10:43:44.893Z</time>
      </trkpt>
      <trkpt lat="43.21109" lon="2.44381">
        <ele>94.434003</ele>
        <time>2022-07-17T10:43:50.396Z</time>
      </trkpt>
      <trkpt lat="43.21111" lon="2.44366">
        <ele>94.166001</ele>
        <time>2022-07-17T10:43:52.297Z</time>
      </trkpt>
      <trkpt lat="43.21116" lon="2.4436">
        <ele>94.011228</ele>
        <time>2022-07-17T10:43:53.506Z</time>
      </trkpt>
      <trkpt lat="43.21117" lon="2.44355">
        <ele>93.933408</ele>
        <time>2022-07-17T10:43:54.081Z</time>
      </trkpt>
      <trkpt lat="43.21114" lon="2.44343">
        <ele>93.71052</ele>
        <time>2022-07-17T10:43:55.663Z</time>
      </trkpt>
      <trkpt lat="43.21104" lon="2.4434">
        <ele>93.470966</ele>
        <time>2022-07-17T10:43:57.314Z</time>
      </trkpt>
      <trkpt lat="43.21097" lon="2.44348">
        <ele>93.245777</ele>
        <time>2022-07-17T10:43:58.980Z</time>
      </trkpt>
      <trkpt lat="43.21085" lon="2.44358">
        <ele>92.928736</ele>
        <time>2022-07-17T10:44:01.370Z</time>
      </trkpt>
      <trkpt lat="43.21033" lon="2.44349">
        <ele>91.727347</ele>
        <time>2022-07-17T10:44:10.298Z</time>
      </trkpt>
      <trkpt lat="43.21034" lon="2.44334">
        <ele>91.474502</ele>
        <time>2022-07-17T10:44:12.294Z</time>
      </trkpt>
      <trkpt lat="43.21036" lon="2.44303">
        <ele>90.951548</ele>
        <time>2022-07-17T10:44:16.108Z</time>
      </trkpt>
      <trkpt lat="43.21035" lon="2.44302">
        <ele>90.916093</ele>
        <time>2022-07-17T10:44:16.344Z</time>
      </trkpt>
      <trkpt lat="43.21034" lon="2.44269">
        <ele>90.369142</ele>
        <time>2022-07-17T10:44:20.609Z</time>
      </trkpt>
      <trkpt lat="43.21033" lon="2.44259">
        <ele>90.194346</ele>
        <time>2022-07-17T10:44:21.898Z</time>
      </trkpt>
      <trkpt lat="43.21028" lon="2.4422">
        <ele>89.533598</ele>
        <time>2022-07-17T10:44:26.896Z</time>
      </trkpt>
      <trkpt lat="43.21024" lon="2.44194">
        <ele>89.089395</ele>
        <time>2022-07-17T10:44:30.361Z</time>
      </trkpt>
      <trkpt lat="43.21021" lon="2.44166">
        <ele>88.80373</ele>
        <time>2022-07-17T10:44:35.502Z</time>
      </trkpt>
      <trkpt lat="43.20992" lon="2.44161">
        <ele>88.494668</ele>
        <time>2022-07-17T10:44:40.836Z</time>
      </trkpt>
      <trkpt lat="43.20962" lon="2.44157">
        <ele>88.163736</ele>
        <time>2022-07-17T10:44:46.716Z</time>
      </trkpt>
      <trkpt lat="43.20946" lon="2.44108">
        <ele>87.747437</ele>
        <time>2022-07-17T10:44:54.197Z</time>
      </trkpt>
      <trkpt lat="43.20946" lon="2.44108">
        <ele>87.747437</ele>
        <time>2022-07-17T10:44:54.200Z</time>
      </trkpt>
      <trkpt lat="43.20946" lon="2.44108">
        <ele>87.747437</ele>
        <time>2022-07-17T10:44:54.233Z</time>
      </trkpt>
      <trkpt lat="43.20936" lon="2.4414">
        <ele>87.474161</ele>
        <time>2022-07-17T10:44:59.477Z</time>
      </trkpt>
      <trkpt lat="43.20935" lon="2.44143">
        <ele>87.447815</ele>
        <time>2022-07-17T10:44:59.966Z</time>
      </trkpt>
      <trkpt lat="43.20934" lon="2.44148">
        <ele>87.412354</ele>
        <time>2022-07-17T10:45:00.635Z</time>
      </trkpt>
      <trkpt lat="43.20923" lon="2.44182">
        <ele>87.119559</ele>
        <time>2022-07-17T10:45:06.230Z</time>
      </trkpt>
      <trkpt lat="43.20918" lon="2.44205">
        <ele>87.167795</ele>
        <time>2022-07-17T10:45:09.757Z</time>
      </trkpt>
      <trkpt lat="43.20933" lon="2.44238">
        <ele>87.450083</ele>
        <time>2022-07-17T10:45:16.021Z</time>
      </trkpt>
      <trkpt lat="43.20939" lon="2.44246">
        <ele>87.53779</ele>
        <time>2022-07-17T10:45:18.159Z</time>
      </trkpt>
      <trkpt lat="43.20966" lon="2.44279">
        <ele>87.8984</ele>
        <time>2022-07-17T10:45:27.390Z</time>
      </trkpt>
      <trkpt lat="43.20973" lon="2.44287">
        <ele>87.987802</ele>
        <time>2022-07-17T10:45:29.993Z</time>
      </trkpt>
      <trkpt lat="43.20981" lon="2.44293">
        <ele>88.076099</ele>
        <time>2022-07-17T10:45:32.578Z</time>
      </trkpt>
      <trkpt lat="43.20994" lon="2.443">
        <ele>88.215171</ele>
        <time>2022-07-17T10:45:36.623Z</time>
      </trkpt>
      <trkpt lat="43.20982" lon="2.44344">
        <ele>88.55613</ele>
        <time>2022-07-17T10:45:49.168Z</time>
      </trkpt>
      <trkpt lat="43.20969" lon="2.44447">
        <ele>89.249345</ele>
        <time>2022-07-17T10:46:16.891Z</time>
      </trkpt>
      <trkpt lat="43.20968" lon="2.44465">
        <ele>89.357864</ele>
        <time>2022-07-17T10:46:20.762Z</time>
      </trkpt>
      <trkpt lat="43.20961" lon="2.44495">
        <ele>89.556724</ele>
        <time>2022-07-17T10:46:26.950Z</time>
      </trkpt>
      <trkpt lat="43.20963" lon="2.44513">
        <ele>89.665867</ele>
        <time>2022-07-17T10:46:30.428Z</time>
      </trkpt>
      <trkpt lat="43.20946" lon="2.44565">
        <ele>90.017556</ele>
        <time>2022-07-17T10:46:40.597Z</time>
      </trkpt>
      <trkpt lat="43.20912" lon="2.44638">
        <ele>90.128364</ele>
        <time>2022-07-17T10:46:55.404Z</time>
      </trkpt>
      <trkpt lat="43.2079" lon="2.44836">
        <ele>87.718006</ele>
        <time>2022-07-17T10:47:29.997Z</time>
      </trkpt>
      <trkpt lat="43.20767" lon="2.44866">
        <ele>87.198185</ele>
        <time>2022-07-17T10:47:35.766Z</time>
      </trkpt>
      <trkpt lat="43.20719" lon="2.44888">
        <ele>86.345794</ele>
        <time>2022-07-17T10:47:45.263Z</time>
      </trkpt>
      <trkpt lat="43.20709" lon="2.44899">
        <ele>86.13191</ele>
        <time>2022-07-17T10:47:47.865Z</time>
      </trkpt>
      <trkpt lat="43.20654" lon="2.44925">
        <ele>85.186881</ele>
        <time>2022-07-17T10:47:59.682Z</time>
      </trkpt>
      <trkpt lat="43.20555" lon="2.44969">
        <ele>84.284117</ele>
        <time>2022-07-17T10:48:22.312Z</time>
      </trkpt>
      <trkpt lat="43.20549" lon="2.44979">
        <ele>84.206025</ele>
        <time>2022-07-17T10:48:24.327Z</time>
      </trkpt>
      <trkpt lat="43.20508" lon="2.45043">
        <ele>83.66539</ele>
        <time>2022-07-17T10:48:38.367Z</time>
      </trkpt>
      <trkpt lat="43.20479" lon="2.45104">
        <ele>83.805791</ele>
        <time>2022-07-17T10:48:51.348Z</time>
      </trkpt>
      <trkpt lat="43.20456" lon="2.45174">
        <ele>83.965342</ele>
        <time>2022-07-17T10:49:05.824Z</time>
      </trkpt>
      <trkpt lat="43.20427" lon="2.4533">
        <ele>84.584249</ele>
        <time>2022-07-17T10:49:52.835Z</time>
      </trkpt>
      <trkpt lat="43.20396" lon="2.45395">
        <ele>85.091464</ele>
        <time>2022-07-17T10:50:16.149Z</time>
      </trkpt>
      <trkpt lat="43.20351" lon="2.45475">
        <ele>85.756435</ele>
        <time>2022-07-17T10:50:46.541Z</time>
      </trkpt>
      <trkpt lat="43.20281" lon="2.45582">
        <ele>86.347092</ele>
        <time>2022-07-17T10:51:28.108Z</time>
      </trkpt>
      <trkpt lat="43.20157" lon="2.45741">
        <ele>86.612116</ele>
        <time>2022-07-17T10:52:33.000Z</time>
      </trkpt>
      <trkpt lat="43.20011" lon="2.45944">
        <ele>85.490984</ele>
        <time>2022-07-17T10:53:45.544Z</time>
      </trkpt>
      <trkpt lat="43.19942" lon="2.46041">
        <ele>84.629422</ele>
        <time>2022-07-17T10:54:18.512Z</time>
      </trkpt>
      <trkpt lat="43.199" lon="2.46123">
        <ele>83.915634</ele>
        <time>2022-07-17T10:54:42.809Z</time>
      </trkpt>
      <trkpt lat="43.19868" lon="2.46205">
        <ele>83.254056</ele>
        <time>2022-07-17T10:55:05.778Z</time>
      </trkpt>
      <trkpt lat="43.19797" lon="2.46464">
        <ele>82.77014</ele>
        <time>2022-07-17T10:56:18.663Z</time>
      </trkpt>
      <trkpt lat="43.1979" lon="2.46523">
        <ele>82.881361</ele>
        <time>2022-07-17T10:56:35.438Z</time>
      </trkpt>
      <trkpt lat="43.19793" lon="2.46755">
        <ele>83.33424</ele>
        <time>2022-07-17T10:57:40.749Z</time>
      </trkpt>
      <trkpt lat="43.19775" lon="2.46954">
        <ele>83.732601</ele>
        <time>2022-07-17T10:58:36.573Z</time>
      </trkpt>
      <trkpt lat="43.19732" lon="2.47227">
        <ele>83.869883</ele>
        <time>2022-07-17T10:59:52.398Z</time>
      </trkpt>
      <trkpt lat="43.19547" lon="2.4799">
        <ele>83.510457</ele>
        <time>2022-07-17T11:03:29.318Z</time>
      </trkpt>
      <trkpt lat="43.19467" lon="2.48119">
        <ele>82.928401</ele>
        <time>2022-07-17T11:04:12.366Z</time>
      </trkpt>
      <trkpt lat="43.19451" lon="2.48167">
        <ele>82.612925</ele>
        <time>2022-07-17T11:04:25.545Z</time>
      </trkpt>
      <trkpt lat="43.19438" lon="2.48251">
        <ele>82.097445</ele>
        <time>2022-07-17T11:04:47.049Z</time>
      </trkpt>
      <trkpt lat="43.19447" lon="2.4848">
        <ele>80.905609</ele>
        <time>2022-07-17T11:05:44.184Z</time>
      </trkpt>
      <trkpt lat="43.19446" lon="2.48637">
        <ele>80.32823</ele>
        <time>2022-07-17T11:06:25.128Z</time>
      </trkpt>
      <trkpt lat="43.1944" lon="2.48749">
        <ele>80.058347</ele>
        <time>2022-07-17T11:06:44.469Z</time>
      </trkpt>
      <trkpt lat="43.19414" lon="2.48881">
        <ele>79.693208</ele>
        <time>2022-07-17T11:07:07.881Z</time>
      </trkpt>
      <trkpt lat="43.19379" lon="2.4898">
        <ele>79.382504</ele>
        <time>2022-07-17T11:07:26.260Z</time>
      </trkpt>
      <trkpt lat="43.19374" lon="2.49023">
        <ele>79.258556</ele>
        <time>2022-07-17T11:07:33.628Z</time>
      </trkpt>
      <trkpt lat="43.19376" lon="2.49066">
        <ele>79.214316</ele>
        <time>2022-07-17T11:07:41.026Z</time>
      </trkpt>
      <trkpt lat="43.19404" lon="2.49183">
        <ele>79.177136</ele>
        <time>2022-07-17T11:08:03.210Z</time>
      </trkpt>
      <trkpt lat="43.19442" lon="2.49261">
        <ele>79.148538</ele>
        <time>2022-07-17T11:08:20.171Z</time>
      </trkpt>
      <trkpt lat="43.19443" lon="2.49262">
        <ele>79.146601</ele>
        <time>2022-07-17T11:08:20.712Z</time>
      </trkpt>
      <trkpt lat="43.19456" lon="2.49279">
        <ele>79.123055</ele>
        <time>2022-07-17T11:08:25.213Z</time>
      </trkpt>
      <trkpt lat="43.19499" lon="2.49315">
        <ele>79.056749</ele>
        <time>2022-07-17T11:08:37.759Z</time>
      </trkpt>
      <trkpt lat="43.1951" lon="2.49338">
        <ele>79.030107</ele>
        <time>2022-07-17T11:08:42.720Z</time>
      </trkpt>
      <trkpt lat="43.1951" lon="2.49374">
        <ele>78.995931</ele>
        <time>2022-07-17T11:08:49.049Z</time>
      </trkpt>
      <trkpt lat="43.19488" lon="2.49466">
        <ele>78.877234</ele>
        <time>2022-07-17T11:09:05.663Z</time>
      </trkpt>
      <trkpt lat="43.19488" lon="2.49523">
        <ele>78.676984</ele>
        <time>2022-07-17T11:09:15.189Z</time>
      </trkpt>
      <trkpt lat="43.19506" lon="2.4967">
        <ele>78.150043</ele>
        <time>2022-07-17T11:09:40.283Z</time>
      </trkpt>
      <trkpt lat="43.19514" lon="2.49803">
        <ele>77.566667</ele>
        <time>2022-07-17T11:10:02.305Z</time>
      </trkpt>
      <trkpt lat="43.19507" lon="2.49864">
        <ele>77.281276</ele>
        <time>2022-07-17T11:10:12.318Z</time>
      </trkpt>
      <trkpt lat="43.19484" lon="2.49958">
        <ele>76.871069</ele>
        <time>2022-07-17T11:10:28.688Z</time>
      </trkpt>
      <trkpt lat="43.19475" lon="2.50017">
        <ele>76.77041</ele>
        <time>2022-07-17T11:10:38.605Z</time>
      </trkpt>
      <trkpt lat="43.19484" lon="2.50114">
        <ele>76.607956</ele>
        <time>2022-07-17T11:10:55.515Z</time>
      </trkpt>
      <trkpt lat="43.19499" lon="2.50217">
        <ele>76.61065</ele>
        <time>2022-07-17T11:11:15.065Z</time>
      </trkpt>
      <trkpt lat="43.19512" lon="2.50268">
        <ele>76.810396</ele>
        <time>2022-07-17T11:11:30.701Z</time>
      </trkpt>
      <trkpt lat="43.19548" lon="2.50371">
        <ele>77.224785</ele>
        <time>2022-07-17T11:12:03.413Z</time>
      </trkpt>
      <trkpt lat="43.1958" lon="2.50503">
        <ele>77.652825</ele>
        <time>2022-07-17T11:12:43.153Z</time>
      </trkpt>
      <trkpt lat="43.19633" lon="2.50567">
        <ele>77.923877</ele>
        <time>2022-07-17T11:13:10.457Z</time>
      </trkpt>
      <trkpt lat="43.19828" lon="2.50753">
        <ele>78.432937</ele>
        <time>2022-07-17T11:14:40.404Z</time>
      </trkpt>
      <trkpt lat="43.19873" lon="2.50807">
        <ele>78.432863</ele>
        <time>2022-07-17T11:15:02.458Z</time>
      </trkpt>
      <trkpt lat="43.1988" lon="2.50821">
        <ele>78.432848</ele>
        <time>2022-07-17T11:15:07.001Z</time>
      </trkpt>
      <trkpt lat="43.19902" lon="2.50967">
        <ele>78.454985</ele>
        <time>2022-07-17T11:15:46.880Z</time>
      </trkpt>
      <trkpt lat="43.19921" lon="2.51031">
        <ele>78.517558</ele>
        <time>2022-07-17T11:16:05.601Z</time>
      </trkpt>
      <trkpt lat="43.20087" lon="2.51309">
        <ele>78.953421</ele>
        <time>2022-07-17T11:17:45.179Z</time>
      </trkpt>
      <trkpt lat="43.20162" lon="2.51424">
        <ele>79.009494</ele>
        <time>2022-07-17T11:18:27.259Z</time>
      </trkpt>
      <trkpt lat="43.20187" lon="2.51484">
        <ele>79.007989</ele>
        <time>2022-07-17T11:18:46.158Z</time>
      </trkpt>
      <trkpt lat="43.20226" lon="2.51632">
        <ele>78.750881</ele>
        <time>2022-07-17T11:19:27.608Z</time>
      </trkpt>
      <trkpt lat="43.2024" lon="2.51726">
        <ele>78.487259</ele>
        <time>2022-07-17T11:19:52.542Z</time>
      </trkpt>
      <trkpt lat="43.20239" lon="2.51816">
        <ele>78.18334</ele>
        <time>2022-07-17T11:20:15.463Z</time>
      </trkpt>
      <trkpt lat="43.20186" lon="2.52084">
        <ele>77.182003</ele>
        <time>2022-07-17T11:21:25.704Z</time>
      </trkpt>
      <trkpt lat="43.2018" lon="2.52197">
        <ele>77.09184</ele>
        <time>2022-07-17T11:21:56.633Z</time>
      </trkpt>
      <trkpt lat="43.20184" lon="2.52295">
        <ele>77.041959</ele>
        <time>2022-07-17T11:22:23.883Z</time>
      </trkpt>
      <trkpt lat="43.2016" lon="2.52375">
        <ele>77.056126</ele>
        <time>2022-07-17T11:22:47.851Z</time>
      </trkpt>
      <trkpt lat="43.20148" lon="2.5249">
        <ele>77.075132</ele>
        <time>2022-07-17T11:23:18.897Z</time>
      </trkpt>
      <trkpt lat="43.20138" lon="2.52547">
        <ele>76.994105</ele>
        <time>2022-07-17T11:23:34.186Z</time>
      </trkpt>
      <trkpt lat="43.20118" lon="2.52619">
        <ele>76.844622</ele>
        <time>2022-07-17T11:23:54.401Z</time>
      </trkpt>
      <trkpt lat="43.20109" lon="2.52671">
        <ele>76.740662</ele>
        <time>2022-07-17T11:24:08.464Z</time>
      </trkpt>
      <trkpt lat="43.20131" lon="2.5279">
        <ele>76.581643</ele>
        <time>2022-07-17T11:24:40.655Z</time>
      </trkpt>
      <trkpt lat="43.20134" lon="2.52834">
        <ele>76.564898</ele>
        <time>2022-07-17T11:24:52.499Z</time>
      </trkpt>
      <trkpt lat="43.20106" lon="2.5306">
        <ele>76.557483</ele>
        <time>2022-07-17T11:25:54.683Z</time>
      </trkpt>
      <trkpt lat="43.20108" lon="2.53191">
        <ele>76.644219</ele>
        <time>2022-07-17T11:26:30.817Z</time>
      </trkpt>
      <trkpt lat="43.20116" lon="2.53233">
        <ele>76.663352</ele>
        <time>2022-07-17T11:26:42.526Z</time>
      </trkpt>
      <trkpt lat="43.20165" lon="2.5328">
        <ele>76.506303</ele>
        <time>2022-07-17T11:27:04.709Z</time>
      </trkpt>
      <trkpt lat="43.20182" lon="2.53307">
        <ele>76.440584</ele>
        <time>2022-07-17T11:27:13.772Z</time>
      </trkpt>
      <trkpt lat="43.20193" lon="2.53339">
        <ele>76.374416</ele>
        <time>2022-07-17T11:27:22.894Z</time>
      </trkpt>
      <trkpt lat="43.20193" lon="2.53378">
        <ele>76.300448</ele>
        <time>2022-07-17T11:27:33.125Z</time>
      </trkpt>
      <trkpt lat="43.20172" lon="2.53485">
        <ele>76.250913</ele>
        <time>2022-07-17T11:28:01.506Z</time>
      </trkpt>
      <trkpt lat="43.20179" lon="2.53532">
        <ele>76.288885</ele>
        <time>2022-07-17T11:28:14.048Z</time>
      </trkpt>
      <trkpt lat="43.20221" lon="2.53657">
        <ele>76.398007</ele>
        <time>2022-07-17T11:28:52.302Z</time>
      </trkpt>
      <trkpt lat="43.20269" lon="2.53833">
        <ele>78.279005</ele>
        <time>2022-07-17T11:29:52.071Z</time>
      </trkpt>
      <trkpt lat="43.20306" lon="2.53887">
        <ele>78.752993</ele>
        <time>2022-07-17T11:30:16.308Z</time>
      </trkpt>
      <trkpt lat="43.20329" lon="2.53904">
        <ele>78.440683</ele>
        <time>2022-07-17T11:30:26.830Z</time>
      </trkpt>
      <trkpt lat="43.20346" lon="2.53908">
        <ele>78.234412</ele>
        <time>2022-07-17T11:30:33.205Z</time>
      </trkpt>
      <trkpt lat="43.20326" lon="2.53993">
        <ele>77.46749</ele>
        <time>2022-07-17T11:30:45.239Z</time>
      </trkpt>
      <trkpt lat="43.20266" lon="2.53992">
        <ele>76.755541</ele>
        <time>2022-07-17T11:30:55.321Z</time>
      </trkpt>
      <trkpt lat="43.20227" lon="2.53993">
        <ele>75.394528</ele>
        <time>2022-07-17T11:31:01.504Z</time>
      </trkpt>
      <trkpt lat="43.20193" lon="2.53994">
        <ele>74.160101</ele>
        <time>2022-07-17T11:31:06.874Z</time>
      </trkpt>
      <trkpt lat="43.20062" lon="2.53995">
        <ele>70.010607</ele>
        <time>2022-07-17T11:31:27.581Z</time>
      </trkpt>
      <trkpt lat="43.20024" lon="2.53996">
        <ele>69.431227</ele>
        <time>2022-07-17T11:31:34.577Z</time>
      </trkpt>
      <trkpt lat="43.19922" lon="2.53998">
        <ele>67.892878</ele>
        <time>2022-07-17T11:31:54.525Z</time>
      </trkpt>
      <trkpt lat="43.19704" lon="2.54004">
        <ele>66.550808</ele>
        <time>2022-07-17T11:32:38.593Z</time>
      </trkpt>
      <trkpt lat="43.19686" lon="2.54013">
        <ele>66.544236</ele>
        <time>2022-07-17T11:32:42.780Z</time>
      </trkpt>
      <trkpt lat="43.1967" lon="2.54043">
        <ele>66.535404</ele>
        <time>2022-07-17T11:32:48.514Z</time>
      </trkpt>
      <trkpt lat="43.19595" lon="2.54332">
        <ele>66.8455</ele>
        <time>2022-07-17T11:33:40.300Z</time>
      </trkpt>
      <trkpt lat="43.19575" lon="2.54373">
        <ele>66.95707</ele>
        <time>2022-07-17T11:33:48.944Z</time>
      </trkpt>
      <trkpt lat="43.1955" lon="2.54398">
        <ele>67.053473</ele>
        <time>2022-07-17T11:33:56.423Z</time>
      </trkpt>
      <trkpt lat="43.19524" lon="2.54407">
        <ele>67.100235</ele>
        <time>2022-07-17T11:34:02.977Z</time>
      </trkpt>
      <trkpt lat="43.1936" lon="2.54405">
        <ele>67.319637</ele>
        <time>2022-07-17T11:34:40.666Z</time>
      </trkpt>
      <trkpt lat="43.19356" lon="2.5484">
        <ele>66.018047</ele>
        <time>2022-07-17T11:35:48.638Z</time>
      </trkpt>
      <trkpt lat="43.19339" lon="2.55183">
        <ele>65.621959</ele>
        <time>2022-07-17T11:36:45.172Z</time>
      </trkpt>
      <trkpt lat="43.19333" lon="2.55262">
        <ele>65.695629</ele>
        <time>2022-07-17T11:36:58.753Z</time>
      </trkpt>
      <trkpt lat="43.19326" lon="2.55284">
        <ele>65.717888</ele>
        <time>2022-07-17T11:37:02.967Z</time>
      </trkpt>
      <trkpt lat="43.19308" lon="2.5531">
        <ele>65.751643</ele>
        <time>2022-07-17T11:37:09.311Z</time>
      </trkpt>
      <trkpt lat="43.19287" lon="2.55367">
        <ele>65.845336</ele>
        <time>2022-07-17T11:37:20.649Z</time>
      </trkpt>
      <trkpt lat="43.19278" lon="2.5538">
        <ele>65.931476</ele>
        <time>2022-07-17T11:37:23.839Z</time>
      </trkpt>
      <trkpt lat="43.19238" lon="2.55408">
        <ele>66.227915</ele>
        <time>2022-07-17T11:37:35.107Z</time>
      </trkpt>
      <trkpt lat="43.19139" lon="2.55457">
        <ele>66.924958</ele>
        <time>2022-07-17T11:38:02.555Z</time>
      </trkpt>
      <trkpt lat="43.19104" lon="2.55541">
        <ele>67.840798</ele>
        <time>2022-07-17T11:38:21.842Z</time>
      </trkpt>
      <trkpt lat="43.19082" lon="2.55576">
        <ele>68.315009</ele>
        <time>2022-07-17T11:38:31.211Z</time>
      </trkpt>
      <trkpt lat="43.19009" lon="2.55658">
        <ele>69.702073</ele>
        <time>2022-07-17T11:38:59.787Z</time>
      </trkpt>
      <trkpt lat="43.18951" lon="2.55691">
        <ele>70.988143</ele>
        <time>2022-07-17T11:39:19.990Z</time>
      </trkpt>
      <trkpt lat="43.18889" lon="2.55728">
        <ele>72.370683</ele>
        <time>2022-07-17T11:39:41.730Z</time>
      </trkpt>
      <trkpt lat="43.18853" lon="2.5575">
        <ele>73.168753</ele>
        <time>2022-07-17T11:39:53.618Z</time>
      </trkpt>
      <trkpt lat="43.18841" lon="2.55749">
        <ele>73.202349</ele>
        <time>2022-07-17T11:39:57.282Z</time>
      </trkpt>
      <trkpt lat="43.18779" lon="2.55718">
        <ele>73.202349</ele>
        <time>2022-07-17T11:40:16.717Z</time>
      </trkpt>
      <trkpt lat="43.18779" lon="2.55799">
        <ele>73.202349</ele>
        <time>2022-07-17T11:40:31.559Z</time>
      </trkpt>
    </trkseg>
  </trk>
</gpx>